Time;durP1;ratioP1;P1;durP2;ratioP2;P2;SDS_P1;SDS_P2;PMS_P1;PMS_P2;Temp;Humidity;BMP_temperature;BMP_pressure;BME280_temperature;BME280_humidity;BME280_pressure;Samples;Min_cycle;Max_cycle;Signal;HPM_P1;HPM_P2
2022/02/03 00:03:24;;;;;;;11.90;6.68;;;;;;;8.43;70.71;100798.66;10400666;28;20248;-72
2022/02/03 00:08:52;;;;;;;12.90;6.45;;;;;;;8.45;70.71;100780.88;10401189;28;20048;-71
2022/02/03 00:24:51;;;;;;;14.50;7.47;;;;;;;8.49;71.22;100768.25;10399540;28;20041;-70
2022/02/03 00:29:59;;;;;;;13.07;6.82;;;;;;;8.43;71.52;100766.81;10395140;28;20056;-70
2022/02/03 00:35:53;;;;;;;11.65;6.45;;;;;;;8.38;71.80;100758.31;10431704;28;20051;-73
2022/02/03 00:51:10;;;;;;;16.10;7.18;;;;;;;8.42;73.07;100767.78;10394912;28;20474;-70
2022/02/03 00:56:25;;;;;;;11.45;6.82;;;;;;;8.53;72.43;100755.63;10405461;28;20045;-71
2022/02/03 01:01:28;;;;;;;;;;;;;;;8.52;70.80;100769.88;10393112;28;20120;-69
2022/02/03 01:06:33;;;;;;;17.65;9.32;;;;;;;8.42;68.80;100764.25;10400404;28;20545;-70
2022/02/03 01:11:43;;;;;;;20.52;10.48;;;;;;;8.38;68.81;100768.91;10401450;28;20063;-69
2022/02/03 01:34:07;;;;;;;16.35;8.15;;;;;;;8.42;71.44;100751.00;10406826;28;20139;-70
2022/02/03 01:43:47;;;;;;;11.38;7.70;;;;;;;8.38;76.28;100747.69;10401456;28;20084;-71
2022/02/03 01:53:56;;;;;;;10.75;7.65;;;;;;;8.35;78.32;100742.59;10400776;28;20587;-71
2022/02/03 01:58:59;;;;;;;10.95;8.38;;;;;;;8.30;79.25;100726.97;10405751;28;20044;-71
2022/02/03 02:04:04;;;;;;;11.98;8.43;;;;;;;8.29;80.46;100716.44;10413124;28;20060;-73
2022/02/03 02:09:20;;;;;;;14.43;9.40;;;;;;;8.18;82.09;100705.66;10416013;28;20099;-70
2022/02/03 02:15:08;;;;;;;11.05;8.75;;;;;;;8.20;82.31;100706.44;10405548;28;20526;-70
2022/02/03 02:46:56;;;;;;;17.20;12.57;;;;;;;8.16;86.36;100670.44;10277324;28;20050;-72
2022/02/03 02:52:07;;;;;;;15.50;12.27;;;;;;;8.22;86.90;100656.78;10277827;28;20689;-71
2022/02/03 03:29:30;;;;;;;16.48;13.65;;;;;;;8.45;87.05;100640.28;10400467;28;20049;-71
2022/02/03 03:39:48;;;;;;;19.10;14.43;;;;;;;8.55;87.14;100637.84;10401415;28;20045;-70
2022/02/03 03:44:57;;;;;;;19.63;16.33;;;;;;;8.56;87.21;100628.94;10403349;28;20060;-69
2022/02/03 03:50:15;;;;;;;19.27;15.70;;;;;;;8.55;88.69;100621.09;10400640;28;20045;-71
2022/02/03 03:55:30;;;;;;;20.63;15.65;;;;;;;8.52;89.00;100619.47;10397256;28;20049;-70
2022/02/03 04:28:38;;;;;;;20.90;16.17;;;;;;;8.61;88.54;100620.69;10404870;28;20090;-70
2022/02/03 05:10:28;;;;;;;19.23;17.05;;;;;;;8.50;92.70;100578.94;10375993;28;20037;-71
2022/02/03 05:16:18;;;;;;;21.48;16.30;;;;;;;8.59;92.51;100590.75;10408593;28;20144;-70
2022/02/03 05:49:44;;;;;;;17.00;15.18;;;;;;;8.52;92.85;100512.50;10392491;28;20057;-71
2022/02/03 05:55:02;;;;;;;14.32;12.65;;;;;;;8.51;92.53;100497.53;10391134;28;20132;-70
2022/02/03 06:31:55;;;;;;;13.27;11.93;;;;;;;8.45;93.17;100489.06;10403815;28;20251;-70
2022/02/03 06:36:56;;;;;;;12.43;10.35;;;;;;;8.44;92.92;100505.91;10401093;28;20498;-72
2022/02/03 06:42:01;;;;;;;12.95;11.20;;;;;;;8.48;93.04;100499.44;10404870;28;20880;-70
2022/02/03 06:47:30;;;;;;;;;;;;;;;8.53;92.83;100495.63;10400198;28;20552;-71
2022/02/03 06:58:00;;;;;;;11.05;9.85;;;;;;;8.62;91.91;100495.84;10402111;28;20071;-70
2022/02/03 07:03:05;;;;;;;10.48;9.38;;;;;;;8.62;91.97;100505.63;10412284;28;21460;-69
2022/02/03 07:08:13;;;;;;;11.15;9.95;;;;;;;8.72;91.87;100514.66;10398434;28;20041;-68
2022/02/03 07:13:15;;;;;;;12.02;10.65;;;;;;;8.75;91.36;100516.22;10401424;28;20064;-69
2022/02/03 07:18:18;;;;;;;10.32;8.73;;;;;;;8.68;91.82;100515.81;10400810;28;20099;-70
2022/02/03 07:23:19;;;;;;;10.95;9.48;;;;;;;8.65;92.18;100510.72;10403696;28;20114;-69
2022/02/03 07:28:21;;;;;;;10.40;9.30;;;;;;;8.66;92.15;100513.28;10406502;28;20057;-68
2022/02/03 07:33:22;;;;;;;10.88;9.52;;;;;;;8.66;91.95;100507.97;10405140;28;20057;-69
2022/02/03 07:38:24;;;;;;;10.57;9.32;;;;;;;8.72;91.71;100511.13;10399740;28;20052;-70
2022/02/03 07:43:25;;;;;;;10.07;9.07;;;;;;;8.73;91.63;100503.06;10399623;28;20049;-71
2022/02/03 07:48:26;;;;;;;12.52;10.88;;;;;;;8.76;91.61;100481.63;10399805;28;20041;-71
2022/02/03 07:53:28;;;;;;;14.95;11.13;;;;;;;8.72;91.99;100490.78;10401707;28;20052;-70
2022/02/03 07:58:29;;;;;;;11.13;9.20;;;;;;;8.73;91.89;100487.16;10400986;28;20067;-71
2022/02/03 08:03:31;;;;;;;11.25;10.05;;;;;;;8.77;91.34;100472.72;10404099;28;20585;-71
2022/02/03 08:08:40;;;;;;;9.52;8.63;;;;;;;8.72;91.36;100458.94;10401561;28;20053;-69
2022/02/03 08:14:32;;;;;;;9.73;8.70;;;;;;;8.84;91.25;100468.69;10401117;28;20106;-70
2022/02/03 08:19:46;;;;;;;12.20;10.20;;;;;;;8.83;90.79;100466.97;10391754;28;20589;-70
2022/02/03 08:24:50;;;;;;;11.70;9.45;;;;;;;8.82;91.03;100459.13;10403939;28;20064;-71
2022/02/03 08:30:20;;;;;;;9.85;8.85;;;;;;;8.78;91.38;100441.69;10406261;28;20207;-70
2022/02/03 08:35:35;;;;;;;11.27;9.40;;;;;;;8.75;91.61;100424.22;10403099;28;20080;-68
2022/02/03 08:45:54;;;;;;;9.93;8.52;;;;;;;8.73;91.96;100419.94;10400370;28;20053;-71
2022/02/03 08:50:56;;;;;;;9.63;8.65;;;;;;;8.80;91.53;100410.59;10430756;28;20053;-69
2022/02/03 08:56:18;;;;;;;9.45;8.45;;;;;;;8.83;91.79;100439.59;10398599;28;20068;-70
2022/02/03 09:59:52;;;;;;;5.28;4.78;;;;;;;9.15;86.36;100349.66;10406513;28;20033;-71
2022/02/03 10:04:56;;;;;;;5.05;4.28;;;;;;;9.31;86.14;100365.31;10406098;28;20064;-72
2022/02/03 10:09:59;;;;;;;5.32;4.82;;;;;;;9.47;84.26;100341.13;10400550;28;20067;-71
2022/02/03 10:15:03;;;;;;;4.68;3.88;;;;;;;9.51;83.26;100344.41;10402468;28;20044;-71
2022/02/03 10:20:13;;;;;;;4.60;4.20;;;;;;;9.48;82.74;100340.16;10406163;28;20108;-72
2022/02/03 10:25:21;;;;;;;5.03;4.15;;;;;;;9.37;82.43;100338.28;10402671;28;20049;-71
2022/02/03 10:30:27;;;;;;;5.32;4.45;;;;;;;9.44;82.45;100329.88;10406895;28;20146;-72
2022/02/03 10:35:39;;;;;;;6.25;4.90;;;;;;;9.45;82.47;100321.78;10402832;28;20048;-71
2022/02/03 10:47:02;;;;;;;3.88;3.08;;;;;;;9.48;82.07;100296.78;10403858;28;20293;-71
2022/02/03 10:58:01;;;;;;;4.00;3.38;;;;;;;9.45;81.42;100295.22;10409943;28;20037;-71
2022/02/03 11:03:14;;;;;;;3.90;2.55;;;;;;;9.35;82.01;100272.94;10384898;28;20044;-71
2022/02/03 11:08:22;;;;;;;2.90;2.60;;;;;;;9.42;81.28;100268.03;10409166;28;20144;-71
2022/02/03 11:13:32;;;;;;;4.50;2.72;;;;;;;9.38;80.54;100248.81;10406026;28;20062;-70
2022/02/03 11:18:35;;;;;;;6.15;2.80;;;;;;;9.42;80.45;100241.47;10406450;28;20742;-72
2022/02/03 11:23:44;;;;;;;3.03;2.67;;;;;;;9.58;79.68;100233.16;10403754;28;20122;-71
2022/02/03 11:29:17;;;;;;;3.72;2.40;;;;;;;9.60;78.98;100221.44;10403886;28;20049;-71
2022/02/03 11:40:39;;;;;;;3.20;2.90;;;;;;;9.62;79.81;100229.31;10406315;28;20059;-71
2022/02/03 11:46:16;;;;;;;3.67;3.25;;;;;;;9.51;80.25;100227.47;10402013;28;20406;-71
2022/02/03 11:52:28;;;;;;;5.40;3.20;;;;;;;9.50;80.37;100210.69;10399107;28;20041;-71
2022/02/03 12:02:49;;;;;;;4.95;3.45;;;;;;;9.62;79.75;100202.72;10398156;28;20053;-72
2022/02/03 12:29:22;;;;;;;3.00;2.40;;;;;;;9.55;79.71;100179.28;10399675;28;20064;-71
2022/02/03 12:39:54;;;;;;;2.95;2.30;;;;;;;9.62;76.48;100137.13;10396329;28;20484;-70
2022/02/03 12:45:13;;;;;;;2.63;1.27;;;;;;;9.68;75.86;100135.81;10398899;28;20246;-72
2022/02/03 12:50:19;;;;;;;2.67;1.88;;;;;;;9.63;75.03;100138.00;10429336;28;20063;-71
2022/02/03 12:55:39;;;;;;;3.25;1.85;;;;;;;9.72;75.22;100119.50;10396660;28;20061;-71
2022/02/03 13:00:49;;;;;;;3.67;1.83;;;;;;;9.77;73.80;100112.97;10423836;28;20053;-71
2022/02/03 13:06:05;;;;;;;3.33;2.28;;;;;;;9.81;73.37;100091.34;10431172;28;20743;-70
2022/02/03 13:11:16;;;;;;;1.35;1.05;;;;;;;9.65;72.84;100081.09;10398182;28;20041;-70
2022/02/03 13:16:18;;;;;;;1.63;0.93;;;;;;;9.50;73.13;100056.59;10400387;28;20049;-70
2022/02/03 13:21:36;;;;;;;1.92;1.10;;;;;;;9.59;72.70;100060.31;10398260;28;20052;-73
2022/02/03 13:26:38;;;;;;;1.63;1.30;;;;;;;9.51;72.94;100031.69;10405294;28;20705;-72
2022/02/03 13:36:49;;;;;;;3.05;0.82;;;;;;;9.69;73.11;100023.22;10410642;28;20056;-70
2022/02/03 13:42:06;;;;;;;2.47;1.23;;;;;;;9.78;72.70;100026.94;10407832;28;20064;-71
2022/02/03 13:47:22;;;;;;;1.63;0.75;;;;;;;9.71;73.15;100051.38;10405095;28;20049;-71
2022/02/03 13:52:33;;;;;;;1.50;1.40;;;;;;;9.79;73.05;100029.47;10405078;28;20045;-70
2022/02/03 14:14:37;;;;;;;1.70;1.50;;;;;;;9.77;72.47;100010.13;10402645;28;20049;-70
2022/02/03 14:30:36;;;;;;;2.80;1.45;;;;;;;9.50;73.17;99998.13;10406619;28;20788;-70
2022/02/03 14:35:38;;;;;;;2.35;1.40;;;;;;;9.43;73.34;99996.94;10409141;28;20482;-72
2022/02/03 14:40:59;;;;;;;2.47;2.10;;;;;;;9.42;73.48;99984.59;10404894;28;20474;-70
2022/02/03 14:46:02;;;;;;;3.03;1.60;;;;;;;9.57;73.16;99998.47;10407706;28;20152;-70
2022/02/03 14:51:06;;;;;;;2.42;1.70;;;;;;;9.50;72.31;99984.84;10405350;28;20049;-69
2022/02/03 15:01:30;;;;;;;3.53;2.13;;;;;;;9.45;72.53;99986.19;10400440;28;20045;-71
2022/02/03 15:06:38;;;;;;;3.72;2.40;;;;;;;9.46;72.50;99975.41;10416049;28;20162;-71
2022/02/03 15:16:50;;;;;;;4.50;3.95;;;;;;;9.50;71.76;99984.84;10401388;28;20048;-71
2022/02/03 15:22:12;;;;;;;5.68;4.30;;;;;;;9.48;71.85;100000.03;10400920;28;20049;-71
2022/02/03 15:27:15;;;;;;;5.13;4.63;;;;;;;9.27;71.32;100001.75;10403835;28;20057;-71
2022/02/03 15:32:17;;;;;;;5.93;4.72;;;;;;;9.17;70.89;99970.63;10403150;28;20049;-71
2022/02/03 15:37:20;;;;;;;6.05;4.75;;;;;;;9.25;70.98;99962.06;10400989;28;20556;-73
2022/02/03 15:42:26;;;;;;;5.28;4.45;;;;;;;9.25;70.43;99987.75;10400200;28;21141;-72
2022/02/03 15:47:44;;;;;;;5.22;4.57;;;;;;;9.29;70.03;99965.28;10399297;28;20056;-71
2022/02/03 16:04:06;;;;;;;3.95;3.10;;;;;;;9.12;67.98;99958.69;10398038;28;20045;-70
2022/02/03 16:20:13;;;;;;;2.38;1.38;;;;;;;9.02;67.06;99955.88;10399521;28;20056;-71
2022/02/03 16:56:33;;;;;;;1.57;0.90;;;;;;;8.71;69.21;99968.91;10398681;28;20059;-70
2022/02/03 17:01:34;;;;;;;2.00;1.48;;;;;;;8.70;69.58;99966.38;10406725;28;20051;-70
2022/02/03 17:06:36;;;;;;;1.55;1.38;;;;;;;8.88;69.04;99953.50;10397942;28;20187;-69
2022/02/03 17:11:37;;;;;;;3.25;1.75;;;;;;;8.80;69.40;99944.31;10397375;28;20081;-72
2022/02/03 17:16:38;;;;;;;2.05;1.45;;;;;;;8.83;69.25;99938.75;10396918;28;20133;-71
2022/02/03 17:21:40;;;;;;;2.00;1.17;;;;;;;8.85;69.08;99955.41;10397661;28;20076;-71
2022/02/03 17:26:56;;;;;;;1.40;0.95;;;;;;;8.81;69.16;99967.25;10400829;28;20055;-71
2022/02/03 18:50:48;;;;;;;2.45;1.90;;;;;;;8.78;69.81;99970.13;10411048;28;20203;-71
2022/02/03 18:55:59;;;;;;;2.10;1.90;;;;;;;8.80;70.23;99962.88;10403380;28;20059;-71
2022/02/03 19:27:37;;;;;;;4.32;2.70;;;;;;;9.00;69.98;99973.75;10406088;28;20045;-71
2022/02/03 20:05:22;;;;;;;3.50;2.88;;;;;;;8.85;69.17;99941.28;10402504;28;20055;-71
2022/02/03 20:10:36;;;;;;;4.20;3.55;;;;;;;8.80;69.14;99933.69;10394569;28;20144;-71
2022/02/03 20:15:43;;;;;;;5.32;3.47;;;;;;;8.76;69.27;99950.81;10403480;28;20049;-72
2022/02/03 20:20:45;;;;;;;3.97;3.53;;;;;;;8.82;69.33;99944.19;10399030;28;20049;-73
2022/02/03 20:25:56;;;;;;;5.10;3.63;;;;;;;8.97;68.71;99948.28;10413471;28;20044;-70
2022/02/03 20:30:57;;;;;;;5.35;4.57;;;;;;;8.86;68.33;99961.56;10399986;28;20044;-72
2022/02/03 20:35:59;;;;;;;6.78;5.43;;;;;;;8.59;69.38;99953.94;10390046;28;20049;-72
2022/02/03 20:41:00;;;;;;;4.97;4.05;;;;;;;8.61;69.21;99952.84;10399021;28;20487;-72
2022/02/03 20:46:02;;;;;;;4.97;4.47;;;;;;;8.57;69.59;99953.19;10398754;28;20579;-72
2022/02/03 20:51:03;;;;;;;4.20;3.80;;;;;;;8.55;69.64;99952.47;10399428;28;20067;-73
2022/02/03 20:56:04;;;;;;;5.68;4.50;;;;;;;8.63;69.55;99955.38;10398750;28;20052;-72
2022/02/03 21:01:19;;;;;;;5.18;3.92;;;;;;;8.62;69.33;99943.94;10398024;28;20057;-71
2022/02/03 21:06:20;;;;;;;4.53;4.03;;;;;;;8.74;69.52;99947.44;10398000;28;20119;-72
2022/02/03 21:11:21;;;;;;;4.78;4.22;;;;;;;8.77;68.53;99936.59;10400644;28;20115;-71
2022/02/03 21:16:23;;;;;;;6.20;4.15;;;;;;;8.85;68.05;99936.81;10403755;28;20049;-72
2022/02/03 21:21:24;;;;;;;5.93;4.63;;;;;;;8.89;67.60;99933.91;10397205;28;20049;-72
2022/02/03 21:26:36;;;;;;;4.40;4.00;;;;;;;8.81;66.94;99930.09;10396645;28;20048;-71
2022/02/03 21:31:38;;;;;;;4.53;4.00;;;;;;;8.79;67.32;99937.31;10398167;28;20037;-71
2022/02/03 21:36:40;;;;;;;4.22;3.70;;;;;;;8.79;67.19;99929.34;10403876;28;20064;-72
2022/02/03 21:41:42;;;;;;;6.25;4.15;;;;;;;8.78;67.07;99940.94;10394945;28;20055;-72
2022/02/03 21:46:44;;;;;;;5.13;4.30;;;;;;;8.81;67.04;99935.38;10406017;28;20045;-73
2022/02/03 21:51:48;;;;;;;5.38;4.25;;;;;;;8.82;66.56;99945.03;10434104;28;20374;-73
2022/02/03 21:56:50;;;;;;;4.82;4.22;;;;;;;8.74;66.69;99955.41;10406006;28;20120;-73
2022/02/03 22:01:51;;;;;;;4.78;4.28;;;;;;;8.72;67.03;99949.38;10402215;28;20053;-71
2022/02/03 22:06:53;;;;;;;5.28;4.78;;;;;;;8.63;67.68;99958.03;10399961;28;20111;-70
2022/02/03 22:11:54;;;;;;;6.43;5.40;;;;;;;8.56;68.12;99951.53;10401601;28;20047;-71
2022/02/03 22:16:58;;;;;;;6.00;5.38;;;;;;;8.54;68.30;99969.34;10401263;28;20583;-71
2022/02/03 22:22:11;;;;;;;5.90;5.28;;;;;;;8.56;68.66;99967.44;10404502;28;20418;-73
2022/02/03 22:43:31;;;;;;;6.80;5.45;;;;;;;8.38;69.99;99973.16;10411303;28;20419;-72
2022/02/03 22:48:33;;;;;;;6.15;4.97;;;;;;;8.38;70.22;99982.94;10404680;28;20073;-71
2022/02/03 22:53:35;;;;;;;7.15;6.07;;;;;;;8.32;70.52;99989.53;10401795;28;20047;-71
2022/02/03 23:03:57;;;;;;;7.93;7.10;;;;;;;8.26;70.75;99979.38;10398205;28;20132;-72
2022/02/03 23:09:06;;;;;;;6.57;5.82;;;;;;;8.21;70.96;99965.59;10402638;28;20072;-71
2022/02/03 23:14:23;;;;;;;7.57;6.13;;;;;;;8.27;70.79;99976.63;10405126;28;20057;-72
2022/02/03 23:19:47;;;;;;;7.60;6.20;;;;;;;8.18;70.94;99974.66;10402554;28;20621;-71
2022/02/03 23:24:51;;;;;;;6.28;5.43;;;;;;;8.16;70.97;99979.22;10402648;28;20531;-71
2022/02/03 23:29:53;;;;;;;6.43;5.50;;;;;;;8.31;70.67;99982.53;10432610;28;20080;-72
2022/02/03 23:35:05;;;;;;;7.05;6.35;;;;;;;8.07;70.76;99970.13;10421121;28;20125;-71
2022/02/03 23:40:13;;;;;;;6.45;5.47;;;;;;;8.06;71.02;99971.13;10411426;28;20127;-73
